Time;durP1;ratioP1;P1;durP2;ratioP2;P2;SDS_P1;SDS_P2;PMS_P1;PMS_P2;Temp;Humidity;BMP_temperature;BMP_pressure;BME280_temperature;BME280_humidity;BME280_pressure;Samples;Min_cycle;Max_cycle;Signal;HPM_P1;HPM_P2
2023/06/02 00:01:36;;;;;;;19.30;9.43;;;14.90;55.50;;;;;;5042030;28;20052;-50
2023/06/02 00:04:03;;;;;;;16.23;8.70;;;14.80;55.50;;;;;;5040228;28;20524;-42
2023/06/02 00:06:33;;;;;;;19.52;9.15;;;14.80;55.50;;;;;;5041712;28;20060;-47
2023/06/02 00:09:03;;;;;;;15.68;8.18;;;14.70;55.70;;;;;;5042246;28;20049;-49
2023/06/02 00:11:34;;;;;;;17.70;8.48;;;14.70;55.70;;;;;;5042885;28;20067;-43
2023/06/02 00:14:03;;;;;;;16.67;8.80;;;14.60;55.70;;;;;;5040734;28;20389;-47
2023/06/02 00:16:31;;;;;;;14.88;8.82;;;14.60;55.70;;;;;;5042179;28;20064;-47
2023/06/02 00:18:58;;;;;;;17.77;8.57;;;14.50;55.70;;;;;;5040199;28;20053;-44
2023/06/02 00:21:26;;;;;;;16.67;8.88;;;14.50;55.80;;;;;;5041876;28;20057;-46
2023/06/02 00:23:55;;;;;;;18.50;8.57;;;14.50;55.90;;;;;;5043109;28;20428;-44
2023/06/02 00:26:22;;;;;;;17.25;8.20;;;14.40;56.00;;;;;;5043815;28;20527;-42
2023/06/02 00:28:51;;;;;;;15.02;8.52;;;14.40;56.00;;;;;;5041476;28;20041;-44
2023/06/02 00:31:18;;;;;;;22.27;8.60;;;14.40;56.10;;;;;;5042946;28;20547;-47
2023/06/02 00:33:46;;;;;;;17.63;8.40;;;14.30;56.10;;;;;;5041829;28;20060;-47
2023/06/02 00:36:13;;;;;;;18.27;8.52;;;14.30;56.20;;;;;;5039542;28;20060;-49
2023/06/02 00:38:42;;;;;;;23.92;9.52;;;14.30;56.40;;;;;;5041559;28;20056;-45
2023/06/02 00:41:10;;;;;;;19.40;8.48;;;14.30;56.30;;;;;;5042836;28;20469;-48
2023/06/02 00:43:38;;;;;;;18.60;8.45;;;14.30;56.30;;;;;;5041380;28;20061;-42
2023/06/02 00:46:05;;;;;;;16.15;8.50;;;14.30;56.30;;;;;;5042289;28;20068;-47
2023/06/02 00:48:32;;;;;;;16.65;8.27;;;14.20;56.40;;;;;;5040848;28;20060;-46
2023/06/02 00:51:00;;;;;;;18.75;8.65;;;14.20;56.40;;;;;;5042322;28;20044;-40
2023/06/02 00:53:27;;;;;;;19.38;8.50;;;14.20;56.40;;;;;;5041258;28;20064;-40
2023/06/02 00:55:55;;;;;;;16.92;8.85;;;14.20;56.30;;;;;;5043082;28;20056;-38
2023/06/02 00:58:25;;;;;;;19.92;8.60;;;14.20;56.20;;;;;;5041950;28;20060;-37
2023/06/02 01:00:52;;;;;;;17.42;7.88;;;14.20;56.20;;;;;;5042667;28;20057;-48
2023/06/02 01:03:21;;;;;;;22.30;9.10;;;14.20;56.10;;;;;;5041666;23;20042;-37
2023/06/02 01:05:50;;;;;;;18.85;8.07;;;14.20;56.20;;;;;;5002296;28;20064;-37
2023/06/02 01:08:18;;;;;;;21.98;9.18;;;14.20;56.10;;;;;;4999845;28;20061;-36
2023/06/02 01:10:47;;;;;;;17.85;8.43;;;14.20;56.20;;;;;;5002863;28;20152;-37
2023/06/02 01:13:16;;;;;;;18.88;8.82;;;14.20;56.20;;;;;;5000764;28;20065;-38
2023/06/02 01:15:46;;;;;;;18.70;8.68;;;14.20;56.20;;;;;;5002788;28;20057;-40
2023/06/02 01:18:15;;;;;;;16.83;8.68;;;14.20;56.30;;;;;;5001087;28;20046;-37
2023/06/02 01:20:47;;;;;;;14.32;8.85;;;14.20;56.30;;;;;;5001717;28;20054;-42
2023/06/02 01:23:17;;;;;;;19.65;8.80;;;14.20;56.20;;;;;;5000227;28;20077;-39
2023/06/02 01:25:46;;;;;;;14.50;8.07;;;14.20;56.20;;;;;;5000603;28;20050;-35
2023/06/02 01:28:15;;;;;;;22.48;8.98;;;14.20;56.20;;;;;;5003043;28;20500;-37
2023/06/02 01:30:42;;;;;;;14.77;8.10;;;14.20;56.20;;;;;;5000882;28;20042;-40
2023/06/02 01:33:16;;;;;;;18.10;8.45;;;14.20;56.40;;;;;;5000455;28;20069;-37
2023/06/02 01:35:46;;;;;;;19.08;8.57;;;14.20;56.30;;;;;;4999878;28;20049;-41
2023/06/02 01:38:15;;;;;;;19.60;8.90;;;14.20;56.30;;;;;;4999280;28;20562;-37
2023/06/02 01:40:43;;;;;;;17.35;8.75;;;14.20;56.30;;;;;;5001400;28;20057;-36
2023/06/02 01:43:13;;;;;;;15.50;8.48;;;14.20;56.40;;;;;;5001829;28;20060;-39
2023/06/02 01:45:42;;;;;;;18.38;8.85;;;14.20;56.30;;;;;;5000867;28;20058;-39
2023/06/02 01:48:10;;;;;;;16.00;8.85;;;14.20;56.30;;;;;;5002623;28;20060;-38
2023/06/02 01:50:39;;;;;;;17.98;8.25;;;14.20;56.30;;;;;;5003646;28;20058;-38
2023/06/02 01:53:06;;;;;;;14.30;7.30;;;14.20;56.30;;;;;;4998512;28;20058;-37
2023/06/02 01:55:34;;;;;;;18.33;8.25;;;14.20;56.20;;;;;;5005097;28;20053;-40
2023/06/02 01:58:02;;;;;;;13.85;7.90;;;14.20;56.20;;;;;;5004731;28;20064;-39
2023/06/02 02:00:31;;;;;;;17.05;8.98;;;14.20;56.10;;;;;;5005939;28;20053;-42
2023/06/02 02:02:59;;;;;;;19.38;7.95;;;14.20;56.10;;;;;;5004054;28;20477;-38
2023/06/02 02:05:26;;;;;;;15.50;8.07;;;14.20;56.10;;;;;;5000458;28;20053;-39
2023/06/02 02:07:53;;;;;;;15.07;7.72;;;14.30;56.10;;;;;;5003262;28;20049;-40
2023/06/02 02:10:21;;;;;;;16.98;8.45;;;14.20;56.00;;;;;;5005581;28;20053;-40
2023/06/02 02:12:48;;;;;;;17.65;8.20;;;14.30;56.00;;;;;;5003073;28;20066;-39
2023/06/02 02:15:16;;;;;;;21.73;9.63;;;14.30;55.80;;;;;;5005774;28;20057;-39
2023/06/02 02:17:47;;;;;;;22.30;9.90;;;14.30;55.50;;;;;;5002760;28;20050;-40
2023/06/02 02:20:17;;;;;;;17.85;9.38;;;14.30;55.40;;;;;;5005417;28;20069;-38
2023/06/02 02:22:44;;;;;;;18.63;9.15;;;14.30;55.40;;;;;;5003331;28;20054;-36
2023/06/02 02:25:12;;;;;;;17.92;9.00;;;14.30;55.20;;;;;;5005275;28;20061;-38
2023/06/02 02:27:40;;;;;;;17.33;9.68;;;14.30;55.10;;;;;;5005902;28;20050;-38
2023/06/02 02:30:08;;;;;;;18.70;9.20;;;14.30;55.00;;;;;;5005350;28;20422;-37
2023/06/02 02:32:37;;;;;;;15.10;8.18;;;14.30;54.90;;;;;;5003440;28;20537;-38
2023/06/02 02:35:07;;;;;;;19.08;9.38;;;14.20;54.90;;;;;;5004785;28;20402;-39
2023/06/02 02:37:35;;;;;;;17.17;9.68;;;14.20;54.90;;;;;;5003960;28;20061;-36
2023/06/02 02:40:04;;;;;;;18.83;9.90;;;14.30;54.60;;;;;;5005082;28;20054;-42
2023/06/02 02:42:33;;;;;;;21.70;9.57;;;14.20;54.20;;;;;;5004629;28;20061;-39
2023/06/02 02:45:01;;;;;;;18.65;9.18;;;14.20;54.00;;;;;;5005178;28;20054;-39
2023/06/02 02:47:29;;;;;;;19.05;8.73;;;14.20;54.20;;;;;;5004551;28;20062;-37
2023/06/02 02:49:56;;;;;;;17.42;8.88;;;14.20;54.30;;;;;;5005016;28;20057;-37
2023/06/02 02:52:24;;;;;;;17.80;8.98;;;14.20;54.30;;;;;;5003979;28;20437;-40
2023/06/02 02:54:52;;;;;;;15.40;8.52;;;14.20;54.20;;;;;;5002853;28;20053;-38
2023/06/02 02:57:19;;;;;;;16.45;6.90;;;14.20;54.10;;;;;;5003829;28;20053;-40
2023/06/02 02:59:47;;;;;;;12.52;6.93;;;14.20;54.00;;;;;;5003409;28;20050;-37
2023/06/02 03:02:14;;;;;;;13.48;7.43;;;14.20;54.00;;;;;;5004265;28;20069;-37
2023/06/02 03:04:43;;;;;;;12.25;7.07;;;14.20;54.00;;;;;;5004235;28;20414;-37
2023/06/02 03:07:10;;;;;;;13.05;6.60;;;14.20;54.00;;;;;;5002643;28;20053;-38
2023/06/02 03:09:39;;;;;;;15.93;7.88;;;14.20;53.90;;;;;;5003677;28;20042;-38
2023/06/02 03:12:07;;;;;;;11.90;7.43;;;14.20;53.70;;;;;;5002786;28;20054;-39
2023/06/02 03:14:34;;;;;;;16.33;8.70;;;14.20;53.80;;;;;;5000727;28;20049;-37
2023/06/02 03:17:01;;;;;;;15.32;8.27;;;14.20;53.80;;;;;;5003310;28;20073;-37
2023/06/02 03:19:28;;;;;;;16.38;8.38;;;14.20;53.80;;;;;;5004260;28;20057;-37
2023/06/02 03:21:56;;;;;;;16.75;8.02;;;14.20;53.50;;;;;;5001951;28;20497;-46
2023/06/02 03:24:24;;;;;;;12.77;7.10;;;14.10;53.40;;;;;;5003816;28;20497;-42
2023/06/02 03:26:55;;;;;;;15.60;8.55;;;14.20;53.60;;;;;;5003356;28;20053;-43
2023/06/02 03:29:22;;;;;;;15.10;7.97;;;14.10;53.40;;;;;;5003792;28;20061;-43
2023/06/02 03:31:51;;;;;;;13.15;6.90;;;14.10;53.40;;;;;;5003780;28;20425;-46
2023/06/02 03:34:19;;;;;;;10.52;7.00;;;14.10;53.40;;;;;;5004105;28;20065;-48
2023/06/02 03:36:48;;;;;;;15.75;6.32;;;14.10;53.20;;;;;;4999501;28;20053;-40
2023/06/02 03:39:15;;;;;;;10.77;6.43;;;14.00;52.80;;;;;;5002807;28;20084;-43
2023/06/02 03:41:42;;;;;;;10.10;5.68;;;14.00;52.40;;;;;;5002192;28;20060;-41
2023/06/02 03:44:11;;;;;;;12.32;6.07;;;14.00;52.30;;;;;;5002207;28;20058;-44
2023/06/02 03:46:38;;;;;;;14.75;6.28;;;14.00;52.00;;;;;;5003282;28;20073;-44
2023/06/02 03:49:06;;;;;;;9.60;5.75;;;13.90;51.90;;;;;;5003260;28;20049;-49
2023/06/02 03:51:33;;;;;;;13.35;6.22;;;13.90;52.00;;;;;;5001503;28;20054;-45
2023/06/02 03:54:00;;;;;;;13.40;6.10;;;13.90;52.00;;;;;;5003365;28;20053;-46
2023/06/02 03:56:28;;;;;;;13.23;6.35;;;13.80;51.80;;;;;;5003100;28;20125;-42
2023/06/02 03:58:55;;;;;;;14.80;6.97;;;13.80;51.50;;;;;;5003334;28;20056;-41
2023/06/02 04:01:24;;;;;;;12.68;6.88;;;13.80;51.40;;;;;;5003422;28;20054;-43
2023/06/02 04:03:51;;;;;;;15.63;6.90;;;13.80;51.50;;;;;;5001881;28;20437;-42
2023/06/02 04:06:18;;;;;;;16.88;6.97;;;13.80;51.50;;;;;;5002176;28;20057;-45
2023/06/02 04:08:46;;;;;;;13.68;7.15;;;13.70;51.30;;;;;;5000831;28;20049;-43
2023/06/02 04:11:13;;;;;;;12.63;6.07;;;13.70;51.40;;;;;;4999485;28;20049;-48
2023/06/02 04:13:40;;;;;;;15.00;7.20;;;13.70;51.50;;;;;;5002247;28;20129;-43
2023/06/02 04:16:08;;;;;;;10.10;6.82;;;13.70;51.60;;;;;;5000972;28;20057;-49
2023/06/02 04:18:39;;;;;;;11.73;6.68;;;13.70;51.60;;;;;;4999669;28;20077;-48
2023/06/02 04:21:06;;;;;;;10.18;5.82;;;13.70;51.50;;;;;;5000246;28;20050;-48
2023/06/02 04:23:33;;;;;;;8.00;5.45;;;13.70;51.70;;;;;;5001581;28;20049;-44
2023/06/02 04:26:01;;;;;;;12.13;8.05;;;13.80;51.90;;;;;;5000902;28;20053;-43
2023/06/02 04:28:29;;;;;;;14.73;7.30;;;13.80;51.80;;;;;;5002295;28;20517;-49
2023/06/02 04:30:59;;;;;;;14.02;7.07;;;13.80;51.60;;;;;;5002802;28;20057;-49
2023/06/02 04:33:27;;;;;;;12.63;7.20;;;13.90;51.50;;;;;;5001701;28;20061;-43
2023/06/02 04:35:56;;;;;;;12.88;7.38;;;13.90;51.50;;;;;;5002609;28;20413;-48
2023/06/02 04:38:24;;;;;;;14.13;8.52;;;13.90;51.30;;;;;;5001488;28;20056;-50
2023/06/02 04:40:51;;;;;;;11.85;6.97;;;13.90;51.30;;;;;;5002766;28;20056;-49
2023/06/02 04:43:19;;;;;;;11.35;6.13;;;13.90;51.30;;;;;;5001337;28;20049;-43
2023/06/02 04:45:47;;;;;;;12.27;7.97;;;13.90;51.40;;;;;;4998879;28;20050;-44
2023/06/02 04:48:14;;;;;;;14.63;7.35;;;13.90;51.40;;;;;;5000591;28;20054;-44
2023/06/02 04:50:41;;;;;;;13.52;7.70;;;13.90;51.20;;;;;;5002233;28;20045;-51
2023/06/02 04:53:10;;;;;;;15.40;7.63;;;14.00;51.30;;;;;;5000354;28;20076;-45
2023/06/02 04:55:38;;;;;;;16.52;8.10;;;14.00;51.30;;;;;;5001138;28;20062;-43
2023/06/02 04:58:05;;;;;;;10.93;6.85;;;14.00;51.20;;;;;;5002353;28;20409;-43
2023/06/02 05:00:34;;;;;;;14.73;7.05;;;14.00;51.20;;;;;;5001305;28;20058;-44
2023/06/02 05:03:01;;;;;;;14.55;7.65;;;14.00;51.20;;;;;;5001898;28;20053;-45
2023/06/02 05:05:28;;;;;;;13.80;7.10;;;14.00;51.20;;;;;;5000579;28;20056;-44
2023/06/02 05:07:56;;;;;;;10.07;5.97;;;14.00;51.10;;;;;;5000805;28;20058;-50
2023/06/02 05:10:25;;;;;;;31.90;12.88;;;14.10;51.30;;;;;;5001770;28;20049;-47
2023/06/02 05:12:53;;;;;;;19.10;8.80;;;14.10;51.20;;;;;;5000478;28;20061;-48
2023/06/02 05:15:21;;;;;;;13.77;7.30;;;14.10;51.00;;;;;;5001488;28;20058;-46
2023/06/02 05:17:48;;;;;;;15.85;6.82;;;14.10;51.10;;;;;;4998662;28;20050;-42
2023/06/02 05:20:15;;;;;;;10.98;5.22;;;14.10;51.00;;;;;;5000815;28;20046;-41
2023/06/02 05:22:42;;;;;;;10.88;5.32;;;14.10;51.10;;;;;;5004035;28;20049;-42
2023/06/02 05:25:10;;;;;;;15.35;5.90;;;14.20;51.20;;;;;;5008069;28;20058;-42
2023/06/02 05:27:39;;;;;;;14.05;5.00;;;14.20;51.00;;;;;;5008081;28;20049;-47
2023/06/02 05:30:07;;;;;;;9.73;4.78;;;14.20;50.80;;;;;;5008196;28;20482;-43
2023/06/02 05:32:34;;;;;;;8.45;4.43;;;14.30;50.80;;;;;;5007645;28;20050;-50
2023/06/02 05:35:02;;;;;;;7.43;3.55;;;14.30;51.30;;;;;;5009141;28;20054;-45
2023/06/02 05:37:29;;;;;;;13.68;4.38;;;14.30;50.80;;;;;;5007255;28;20064;-47
2023/06/02 05:39:56;;;;;;;9.35;4.38;;;14.40;50.60;;;;;;5008120;28;20054;-50
2023/06/02 05:42:23;;;;;;;9.80;4.20;;;14.40;50.60;;;;;;5008647;28;20065;-45
2023/06/02 05:44:52;;;;;;;8.30;4.68;;;14.40;50.60;;;;;;5008467;28;20049;-46
2023/06/02 05:47:19;;;;;;;11.38;5.05;;;14.40;50.60;;;;;;5008006;28;20061;-47
2023/06/02 05:49:46;;;;;;;13.10;5.78;;;14.50;50.50;;;;;;5008615;28;20053;-48
2023/06/02 05:52:14;;;;;;;15.43;6.30;;;14.50;49.70;;;;;;5006228;28;20054;-45
2023/06/02 05:54:41;;;;;;;12.63;5.85;;;14.50;49.40;;;;;;5008541;28;20060;-48
2023/06/02 05:57:08;;;;;;;10.60;5.88;;;14.50;49.10;;;;;;5007835;28;20421;-41
2023/06/02 05:59:35;;;;;;;15.00;5.72;;;14.40;48.90;;;;;;5008119;28;20061;-42
2023/06/02 06:02:04;;;;;;;16.00;5.90;;;14.30;48.80;;;;;;5008023;28;20064;-44
2023/06/02 06:04:32;;;;;;;13.82;5.43;;;14.20;48.90;;;;;;5007055;28;20061;-45
2023/06/02 06:06:59;;;;;;;15.68;6.15;;;14.20;49.00;;;;;;5006536;28;20061;-41
2023/06/02 06:09:27;;;;;;;13.13;6.25;;;14.10;49.20;;;;;;5008360;28;20084;-45
2023/06/02 06:11:54;;;;;;;15.43;5.95;;;14.00;49.30;;;;;;5007500;28;20053;-41
2023/06/02 06:14:21;;;;;;;17.55;6.97;;;14.00;49.30;;;;;;5008101;28;20053;-43
2023/06/02 06:16:48;;;;;;;14.73;6.68;;;13.90;49.30;;;;;;5007243;28;20056;-42
2023/06/02 06:19:18;;;;;;;17.92;7.68;;;13.90;49.50;;;;;;5007085;28;20501;-42
2023/06/02 06:21:45;;;;;;;15.32;8.45;;;13.80;49.30;;;;;;5002665;28;20058;-46
2023/06/02 06:24:12;;;;;;;15.40;7.95;;;13.80;49.10;;;;;;5007397;28;20058;-47
2023/06/02 06:26:41;;;;;;;14.77;8.07;;;13.70;49.20;;;;;;5007917;28;20774;-47
2023/06/02 06:29:08;;;;;;;20.15;9.13;;;13.70;49.40;;;;;;5008042;28;20409;-47
2023/06/02 06:31:35;;;;;;;25.95;9.13;;;13.70;49.50;;;;;;5003610;28;20046;-45
2023/06/02 06:34:04;;;;;;;20.17;9.38;;;13.70;49.40;;;;;;5006071;28;20054;-43
2023/06/02 06:36:35;;;;;;;19.75;8.98;;;13.60;49.30;;;;;;4999554;28;20061;-42
2023/06/02 06:39:02;;;;;;;18.02;8.50;;;13.60;49.20;;;;;;5003409;28;20056;-43
2023/06/02 06:41:29;;;;;;;19.75;8.05;;;13.60;49.30;;;;;;5002827;28;20050;-43
2023/06/02 06:43:56;;;;;;;23.48;8.05;;;13.60;49.60;;;;;;5002045;28;20521;-44
2023/06/02 06:46:24;;;;;;;19.38;7.20;;;13.60;49.90;;;;;;5003537;28;20056;-43
2023/06/02 06:48:51;;;;;;;12.98;5.60;;;13.70;49.90;;;;;;5002184;28;20409;-44
2023/06/02 06:51:18;;;;;;;15.90;5.60;;;13.70;50.00;;;;;;5000620;28;20054;-45
2023/06/02 06:53:47;;;;;;;14.20;5.55;;;13.80;49.80;;;;;;5003544;28;20065;-48
2023/06/02 06:56:14;;;;;;;14.95;4.97;;;13.80;49.60;;;;;;5005257;28;20053;-46
2023/06/02 06:58:41;;;;;;;16.58;4.95;;;13.80;49.30;;;;;;5004480;28;20057;-49
2023/06/02 07:01:09;;;;;;;16.10;4.50;;;13.90;49.30;;;;;;5002526;28;20060;-46
2023/06/02 07:03:36;;;;;;;12.75;5.00;;;13.90;49.30;;;;;;5003440;28;20054;-45
2023/06/02 07:06:03;;;;;;;14.85;4.75;;;13.90;49.10;;;;;;5002890;28;20422;-42
2023/06/02 07:08:31;;;;;;;16.10;4.50;;;13.90;49.00;;;;;;5002806;28;20057;-44
2023/06/02 07:10:59;;;;;;;8.90;4.18;;;13.90;49.00;;;;;;5003689;28;20050;-44
2023/06/02 07:13:27;;;;;;;9.95;3.88;;;13.90;49.20;;;;;;5002030;28;20418;-46
2023/06/02 07:15:54;;;;;;;12.25;5.28;;;14.00;49.30;;;;;;5003419;28;20137;-43
2023/06/02 07:18:22;;;;;;;15.45;4.95;;;14.00;49.30;;;;;;5003034;28;20064;-44
2023/06/02 07:20:49;;;;;;;18.58;3.95;;;14.00;48.70;;;;;;5002231;28;20374;-42
2023/06/02 07:23:16;;;;;;;13.18;4.25;;;14.00;48.80;;;;;;5000992;28;20073;-43
2023/06/02 07:25:44;;;;;;;16.30;4.40;;;13.90;48.60;;;;;;5003362;28;20061;-45
2023/06/02 07:28:12;;;;;;;16.77;4.80;;;13.90;49.00;;;;;;5003003;28;20061;-41
2023/06/02 07:30:44;;;;;;;12.55;3.97;;;13.90;49.00;;;;;;5003285;28;20411;-46
2023/06/02 07:33:11;;;;;;;10.27;3.58;;;13.90;49.00;;;;;;4998312;28;20061;-41
2023/06/02 07:35:38;;;;;;;18.38;4.30;;;13.90;49.40;;;;;;5002379;28;20053;-43
2023/06/02 07:38:06;;;;;;;14.13;3.80;;;14.00;49.80;;;;;;5001603;28;20062;-44
2023/06/02 07:40:33;;;;;;;10.45;3.63;;;14.10;50.00;;;;;;5001129;28;20407;-45
2023/06/02 07:43:00;;;;;;;12.32;3.92;;;14.20;49.80;;;;;;5002986;28;20118;-48
2023/06/02 07:45:29;;;;;;;11.50;3.88;;;14.30;49.80;;;;;;5001603;28;20421;-47
2023/06/02 07:47:56;;;;;;;18.25;4.00;;;14.40;49.20;;;;;;5002958;28;20054;-45
2023/06/02 07:50:25;;;;;;;10.52;3.45;;;14.50;48.90;;;;;;5002265;28;20057;-42
2023/06/02 07:52:52;;;;;;;9.88;3.60;;;14.50;49.10;;;;;;5000565;28;20050;-49
2023/06/02 07:55:20;;;;;;;11.80;3.70;;;14.60;48.90;;;;;;5000291;28;20050;-47
2023/06/02 07:57:47;;;;;;;23.85;4.65;;;14.70;48.70;;;;;;5001990;28;20050;-45
2023/06/02 08:00:16;;;;;;;9.10;3.08;;;14.80;48.50;;;;;;5000355;28;20064;-42
2023/06/02 08:02:46;;;;;;;22.45;4.97;;;14.80;48.50;;;;;;5001078;28;20072;-46
2023/06/02 08:05:13;;;;;;;19.42;4.18;;;14.90;48.10;;;;;;4998647;28;20418;-47
2023/06/02 08:07:41;;;;;;;17.95;4.25;;;14.90;47.90;;;;;;4997895;28;20061;-43
2023/06/02 08:10:09;;;;;;;10.65;3.17;;;14.90;47.80;;;;;;4999650;28;20057;-41
2023/06/02 08:12:37;;;;;;;19.48;4.43;;;15.00;48.10;;;;;;5000491;28;20054;-47
2023/06/02 08:15:05;;;;;;;19.40;4.05;;;15.00;47.60;;;;;;5001312;28;20509;-42
2023/06/02 08:17:33;;;;;;;15.93;3.90;;;15.00;47.50;;;;;;4999395;28;20050;-42
2023/06/02 08:20:03;;;;;;;15.95;3.72;;;15.00;47.90;;;;;;4998180;28;20058;-46
2023/06/02 08:22:31;;;;;;;13.75;3.90;;;15.00;47.90;;;;;;4997165;28;20058;-42
2023/06/02 08:24:59;;;;;;;13.48;4.30;;;15.00;47.90;;;;;;5000068;28;20065;-42
2023/06/02 08:27:26;;;;;;;12.50;3.60;;;15.00;48.20;;;;;;5001416;28;20061;-46
2023/06/02 08:29:56;;;;;;;17.45;3.63;;;15.00;48.30;;;;;;5000896;28;20057;-40
2023/06/02 08:32:24;;;;;;;12.77;3.78;;;15.10;48.60;;;;;;5001077;28;20501;-43
2023/06/02 08:34:51;;;;;;;13.95;4.15;;;15.10;48.70;;;;;;5002169;28;20420;-42
2023/06/02 08:37:21;;;;;;;19.30;4.53;;;15.20;48.60;;;;;;4997723;28;20508;-46
2023/06/02 08:39:49;;;;;;;16.52;4.10;;;15.30;47.50;;;;;;5001498;28;20053;-44
2023/06/02 08:42:17;;;;;;;17.70;4.18;;;15.30;47.50;;;;;;4999537;28;20066;-44
2023/06/02 08:44:45;;;;;;;15.10;4.50;;;15.40;47.70;;;;;;5000253;28;20422;-42
2023/06/02 08:47:13;;;;;;;18.02;4.30;;;15.40;47.70;;;;;;5000688;28;20726;-44
2023/06/02 08:49:43;;;;;;;16.52;4.43;;;15.40;47.20;;;;;;4999896;28;20493;-43
2023/06/02 08:52:12;;;;;;;16.45;3.60;;;15.50;47.00;;;;;;4999925;28;20050;-51
2023/06/02 08:54:41;;;;;;;13.27;4.30;;;15.50;46.90;;;;;;4999550;28;20601;-41
2023/06/02 08:57:09;;;;;;;13.80;5.20;;;15.50;47.20;;;;;;5000718;28;20061;-44
2023/06/02 08:59:37;;;;;;;11.68;3.85;;;15.50;47.20;;;;;;5000806;28;20273;-42
2023/06/02 09:02:04;;;;;;;20.52;5.43;;;15.50;47.30;;;;;;5000057;28;20057;-41
2023/06/02 09:04:32;;;;;;;24.65;5.97;;;15.50;47.10;;;;;;4997584;28;20057;-45
2023/06/02 09:07:19;;;;;;;16.77;3.85;;;15.60;47.60;;;;;;4999619;28;20053;-43
2023/06/02 09:09:49;;;;;;;15.18;5.07;;;15.60;47.20;;;;;;4999918;28;20058;-41
2023/06/02 09:12:18;;;;;;;11.88;3.90;;;15.60;46.80;;;;;;5000402;28;20069;-41
2023/06/02 09:14:48;;;;;;;15.45;4.55;;;15.60;47.00;;;;;;5000975;28;20062;-43
2023/06/02 09:17:25;;;;;;;14.73;4.82;;;15.60;46.90;;;;;;4999921;28;20069;-45
2023/06/02 09:19:54;;;;;;;15.60;4.70;;;15.60;46.60;;;;;;4999676;28;20053;-43
2023/06/02 09:22:21;;;;;;;24.35;5.65;;;15.60;46.80;;;;;;4998031;28;20057;-45
2023/06/02 09:24:51;;;;;;;32.25;4.85;;;15.60;46.90;;;;;;4999832;28;20061;-43
2023/06/02 09:27:18;;;;;;;12.48;4.68;;;15.60;46.90;;;;;;4998397;28;20482;-47
2023/06/02 09:29:48;;;;;;;19.40;4.95;;;15.60;47.00;;;;;;4998464;28;20061;-46
2023/06/02 09:32:16;;;;;;;20.10;4.90;;;15.60;46.70;;;;;;5000520;28;20502;-44
2023/06/02 09:34:45;;;;;;;12.15;4.22;;;15.60;46.60;;;;;;4998730;28;20054;-44
2023/06/02 09:37:14;;;;;;;21.48;4.88;;;15.60;46.90;;;;;;4999176;28;20437;-42
2023/06/02 09:39:43;;;;;;;14.15;4.47;;;15.70;46.90;;;;;;4999332;28;20058;-43
2023/06/02 09:42:14;;;;;;;23.17;5.45;;;15.70;47.20;;;;;;4999441;28;20054;-42
2023/06/02 09:44:41;;;;;;;17.05;4.65;;;15.70;47.30;;;;;;5001205;28;20057;-42
2023/06/02 09:47:22;;;;;;;18.20;4.78;;;15.80;47.10;;;;;;4999502;28;20058;-41
2023/06/02 09:49:49;;;;;;;23.92;6.20;;;15.90;47.40;;;;;;5000673;28;20421;-44
2023/06/02 09:52:18;;;;;;;15.73;5.63;;;15.90;47.30;;;;;;4996875;28;20046;-41
2023/06/02 09:54:46;;;;;;;17.00;5.15;;;16.00;46.70;;;;;;5000938;28;20414;-43
2023/06/02 09:57:16;;;;;;;18.05;4.75;;;16.00;46.80;;;;;;5000060;28;20559;-40
2023/06/02 09:59:44;;;;;;;18.60;5.43;;;16.00;47.30;;;;;;5000559;28;20057;-42
2023/06/02 10:02:12;;;;;;;15.23;5.25;;;16.10;46.80;;;;;;4996240;28;20581;-43
2023/06/02 10:04:40;;;;;;;29.02;5.75;;;16.10;46.90;;;;;;4998377;28;20073;-43
2023/06/02 10:07:26;;;;;;;14.27;4.28;;;16.20;47.10;;;;;;4999344;28;20061;-42
2023/06/02 10:10:07;;;;;;;17.08;4.05;;;16.20;46.80;;;;;;4997486;28;20049;-44
2023/06/02 10:12:52;;;;;;;15.93;4.15;;;16.20;47.00;;;;;;5000626;28;20060;-40
2023/06/02 10:15:56;;;;;;;22.27;5.32;;;16.30;47.20;;;;;;5004864;28;20061;-43
2023/06/02 10:18:42;;;;;;;14.00;4.32;;;16.40;46.60;;;;;;4923479;29;20561;-43
2023/06/02 10:21:18;;;;;;;20.42;4.50;;;16.50;46.60;;;;;;4998903;28;20406;-45
2023/06/02 10:23:57;;;;;;;16.42;5.20;;;16.50;46.70;;;;;;5005023;28;20118;-46
2023/06/02 10:26:43;;;;;;;17.88;4.53;;;16.50;46.20;;;;;;5005675;28;20054;-42
2023/06/02 10:29:14;;;;;;;12.10;4.20;;;16.60;45.90;;;;;;5004965;28;21290;-45
2023/06/02 10:31:43;;;;;;;20.75;4.90;;;16.70;46.40;;;;;;5003980;28;20623;-40
2023/06/02 10:34:48;;;;;;;16.08;4.70;;;16.70;46.60;;;;;;5004480;28;20060;-49
2023/06/02 10:37:15;;;;;;;17.98;5.13;;;16.80;46.80;;;;;;5001443;28;20049;-42
2023/06/02 10:39:52;;;;;;;21.75;5.30;;;16.90;46.30;;;;;;5004621;28;20058;-47
2023/06/02 10:42:21;;;;;;;10.55;3.67;;;16.90;46.00;;;;;;5004074;28;20061;-45
2023/06/02 10:44:51;;;;;;;18.05;5.18;;;17.00;46.50;;;;;;5005006;28;20054;-43
2023/06/02 10:47:36;;;;;;;14.38;4.93;;;17.00;46.10;;;;;;5003757;28;20065;-41
2023/06/02 10:50:09;;;;;;;16.00;4.57;;;17.10;46.20;;;;;;5003991;28;20076;-43
2023/06/02 10:53:08;;;;;;;22.15;5.70;;;17.20;46.00;;;;;;5002087;28;20057;-43
2023/06/02 10:55:35;;;;;;;16.70;4.47;;;17.20;44.90;;;;;;5004178;28;20053;-50
2023/06/02 10:58:03;;;;;;;13.35;4.72;;;17.30;45.90;;;;;;5004336;28;20494;-43
2023/06/02 11:00:46;;;;;;;19.30;5.07;;;17.40;45.70;;;;;;5003225;28;20054;-43
2023/06/02 11:03:35;;;;;;;17.08;4.85;;;17.40;45.60;;;;;;4999681;28;20053;-43
2023/06/02 11:06:19;;;;;;;22.02;5.22;;;17.50;45.40;;;;;;5003846;28;20046;-44
2023/06/02 11:08:48;;;;;;;13.75;4.55;;;17.50;45.00;;;;;;5001824;28;20057;-48
2023/06/02 11:11:51;;;;;;;10.27;3.85;;;17.60;45.20;;;;;;5002699;28;20368;-42
2023/06/02 11:14:19;;;;;;;14.05;4.60;;;17.60;45.70;;;;;;5000565;28;20050;-42
2023/06/02 11:17:35;;;;;;;20.02;5.07;;;17.70;45.70;;;;;;5002793;28;20068;-45
2023/06/02 11:20:04;;;;;;;20.20;5.28;;;17.80;45.60;;;;;;4954163;28;20080;-43
2023/06/02 11:22:33;;;;;;;12.75;4.95;;;17.80;45.10;;;;;;5000341;28;20065;-48
2023/06/02 11:25:02;;;;;;;12.85;4.45;;;17.90;45.10;;;;;;5003499;28;20053;-42
2023/06/02 11:27:37;;;;;;;15.30;4.50;;;17.90;44.60;;;;;;5000839;28;20509;-42
2023/06/02 11:30:10;;;;;;;12.45;4.18;;;18.00;44.90;;;;;;5004318;28;20054;-47
2023/06/02 11:32:39;;;;;;;14.18;4.60;;;18.00;45.00;;;;;;5000616;28;20445;-45
2023/06/02 11:35:08;;;;;;;13.02;4.43;;;18.10;45.20;;;;;;5001628;28;20509;-42
2023/06/02 11:37:38;;;;;;;14.07;4.65;;;18.10;45.30;;;;;;5001343;28;20525;-45
2023/06/02 11:40:09;;;;;;;12.50;4.40;;;18.10;45.20;;;;;;5003823;28;20054;-46
2023/06/02 11:42:41;;;;;;;16.83;5.28;;;18.20;45.20;;;;;;5001703;28;20054;-42
2023/06/02 11:45:19;;;;;;;17.27;5.07;;;18.30;45.00;;;;;;5002011;28;20058;-45
2023/06/02 11:47:55;;;;;;;21.77;5.28;;;18.40;45.00;;;;;;5003049;28;20422;-41
2023/06/02 11:50:23;;;;;;;15.65;4.20;;;18.40;44.80;;;;;;5002696;28;20053;-44
2023/06/02 11:52:50;;;;;;;18.65;6.10;;;18.50;44.50;;;;;;5000066;28;20050;-48
2023/06/02 11:55:17;;;;;;;18.25;5.80;;;18.50;44.20;;;;;;5002793;28;20060;-46
2023/06/02 11:57:45;;;;;;;14.75;4.90;;;18.60;44.00;;;;;;5001170;28;21463;-44
2023/06/02 12:00:15;;;;;;;19.05;4.72;;;18.60;44.10;;;;;;5002471;28;20498;-44
2023/06/02 12:02:53;;;;;;;8.98;3.42;;;18.60;44.00;;;;;;5003597;28;20073;-44
2023/06/02 12:05:32;;;;;;;19.77;5.40;;;18.60;44.30;;;;;;5001245;28;20057;-43
2023/06/02 12:08:08;;;;;;;15.98;5.10;;;18.70;44.80;;;;;;5000978;28;20053;-41
2023/06/02 12:10:36;;;;;;;14.07;4.80;;;18.70;44.10;;;;;;4999392;28;20061;-42
2023/06/02 12:13:03;;;;;;;19.67;5.47;;;18.80;43.90;;;;;;5000074;28;20050;-43
2023/06/02 12:15:33;;;;;;;13.32;5.13;;;18.80;43.50;;;;;;5001909;28;20057;-45
2023/06/02 12:18:04;;;;;;;18.35;5.07;;;18.80;43.80;;;;;;5001871;28;20060;-45
2023/06/02 12:20:40;;;;;;;15.02;4.32;;;18.80;44.10;;;;;;4999844;28;20413;-45
2023/06/02 12:23:09;;;;;;;10.88;4.47;;;18.90;44.70;;;;;;4999536;28;20061;-45
2023/06/02 12:25:37;;;;;;;12.73;4.72;;;18.90;44.60;;;;;;5002007;28;20418;-43
2023/06/02 12:28:10;;;;;;;12.48;3.65;;;19.00;44.70;;;;;;5000861;28;20053;-43
2023/06/02 12:30:38;;;;;;;9.68;3.58;;;19.10;44.70;;;;;;5002121;28;20383;-43
2023/06/02 12:33:06;;;;;;;10.40;3.63;;;19.10;44.80;;;;;;5002734;28;20054;-44
2023/06/02 12:35:33;;;;;;;24.75;5.70;;;19.20;44.80;;;;;;5001177;28;20076;-41
2023/06/02 12:38:03;;;;;;;10.98;4.40;;;19.20;43.40;;;;;;4999386;28;20061;-44
2023/06/02 12:40:30;;;;;;;19.85;4.47;;;19.30;43.90;;;;;;4998420;28;20060;-43
2023/06/02 12:42:57;;;;;;;15.18;4.50;;;19.40;44.10;;;;;;5002428;28;20060;-43
2023/06/02 12:45:24;;;;;;;17.80;5.22;;;19.50;43.90;;;;;;4999816;28;20049;-41
2023/06/02 12:47:52;;;;;;;15.02;4.55;;;19.50;44.00;;;;;;5000564;28;20061;-42
2023/06/02 12:50:20;;;;;;;18.42;4.82;;;19.50;43.90;;;;;;4997037;28;20060;-42